sensor_id;sensor_type;location;lat;lon;timestamp;pressure;altitude;pressure_sealevel;temperature;humidity
51715;BME280;39115;59.332;18.034;2023-04-27T00:01:33;100136.31;;;4.19;46.41
51715;BME280;39115;59.332;18.034;2023-04-27T00:03:53;100135.59;;;4.17;46.73
51715;BME280;39115;59.332;18.034;2023-04-27T00:06:14;100132.56;;;4.10;46.73
51715;BME280;39115;59.332;18.034;2023-04-27T00:08:34;100132.75;;;4.07;46.65
51715;BME280;39115;59.332;18.034;2023-04-27T00:10:57;100147.94;;;4.03;46.69
51715;BME280;39115;59.332;18.034;2023-04-27T00:13:18;100149.13;;;3.99;46.62
51715;BME280;39115;59.332;18.034;2023-04-27T00:15:38;100140.59;;;3.95;46.64
51715;BME280;39115;59.332;18.034;2023-04-27T00:17:59;100145.22;;;3.92;46.82
51715;BME280;39115;59.332;18.034;2023-04-27T00:20:21;100149.88;;;3.88;46.54
51715;BME280;39115;59.332;18.034;2023-04-27T00:22:41;100148.19;;;3.87;46.90
51715;BME280;39115;59.332;18.034;2023-04-27T00:25:01;100151.00;;;3.84;46.57
51715;BME280;39115;59.332;18.034;2023-04-27T00:27:22;100156.59;;;3.79;46.67
51715;BME280;39115;59.332;18.034;2023-04-27T00:29:42;100158.59;;;3.76;46.68
51715;BME280;39115;59.332;18.034;2023-04-27T00:32:02;100147.31;;;3.74;46.78
51715;BME280;39115;59.332;18.034;2023-04-27T00:34:23;100153.56;;;3.73;47.00
51715;BME280;39115;59.332;18.034;2023-04-27T00:36:43;100154.59;;;3.70;46.97
51715;BME280;39115;59.332;18.034;2023-04-27T00:39:03;100158.28;;;3.68;46.81
51715;BME280;39115;59.332;18.034;2023-04-27T00:41:25;100158.38;;;3.66;46.96
51715;BME280;39115;59.332;18.034;2023-04-27T00:43:45;100161.22;;;3.63;47.05
51715;BME280;39115;59.332;18.034;2023-04-27T00:46:06;100151.63;;;3.62;46.86
51715;BME280;39115;59.332;18.034;2023-04-27T00:48:26;100160.38;;;3.62;47.00
51715;BME280;39115;59.332;18.034;2023-04-27T00:50:47;100157.63;;;3.64;47.07
51715;BME280;39115;59.332;18.034;2023-04-27T00:53:07;100156.69;;;3.65;47.04
51715;BME280;39115;59.332;18.034;2023-04-27T00:55:28;100155.88;;;3.64;47.19
51715;BME280;39115;59.332;18.034;2023-04-27T00:57:48;100146.16;;;3.65;47.16
51715;BME280;39115;59.332;18.034;2023-04-27T01:00:08;100163.66;;;3.66;47.34
51715;BME280;39115;59.332;18.034;2023-04-27T01:02:29;100154.19;;;3.63;47.28
51715;BME280;39115;59.332;18.034;2023-04-27T01:04:50;100147.22;;;3.62;47.13
51715;BME280;39115;59.332;18.034;2023-04-27T01:07:11;100147.09;;;3.64;47.31
51715;BME280;39115;59.332;18.034;2023-04-27T01:09:31;100151.63;;;3.62;47.29
51715;BME280;39115;59.332;18.034;2023-04-27T01:11:51;100149.09;;;3.60;47.29
51715;BME280;39115;59.332;18.034;2023-04-27T01:14:11;100151.84;;;3.59;47.38
51715;BME280;39115;59.332;18.034;2023-04-27T01:16:32;100146.72;;;3.57;47.33
51715;BME280;39115;59.332;18.034;2023-04-27T01:18:53;100149.41;;;3.56;47.51
51715;BME280;39115;59.332;18.034;2023-04-27T01:21:13;100153.00;;;3.55;47.35
51715;BME280;39115;59.332;18.034;2023-04-27T01:23:33;100158.19;;;3.56;47.41
51715;BME280;39115;59.332;18.034;2023-04-27T01:25:54;100155.75;;;3.53;47.33
51715;BME280;39115;59.332;18.034;2023-04-27T01:28:14;100159.31;;;3.52;47.23
51715;BME280;39115;59.332;18.034;2023-04-27T01:30:34;100163.00;;;3.50;47.54
51715;BME280;39115;59.332;18.034;2023-04-27T01:32:55;100157.09;;;3.46;47.42
51715;BME280;39115;59.332;18.034;2023-04-27T01:35:15;100162.56;;;3.43;47.46
51715;BME280;39115;59.332;18.034;2023-04-27T01:37:35;100159.28;;;3.39;47.58
51715;BME280;39115;59.332;18.034;2023-04-27T01:39:56;100162.91;;;3.38;47.67
51715;BME280;39115;59.332;18.034;2023-04-27T01:42:16;100161.19;;;3.37;47.73
51715;BME280;39115;59.332;18.034;2023-04-27T01:44:36;100167.41;;;3.36;47.55
51715;BME280;39115;59.332;18.034;2023-04-27T01:46:57;100175.31;;;3.36;47.72
51715;BME280;39115;59.332;18.034;2023-04-27T01:49:17;100168.47;;;3.34;47.59
51715;BME280;39115;59.332;18.034;2023-04-27T01:51:38;100171.16;;;3.32;47.80
51715;BME280;39115;59.332;18.034;2023-04-27T01:53:58;100164.31;;;3.29;47.72
51715;BME280;39115;59.332;18.034;2023-04-27T01:56:18;100165.50;;;3.25;47.69
51715;BME280;39115;59.332;18.034;2023-04-27T01:58:39;100164.63;;;3.25;47.89
51715;BME280;39115;59.332;18.034;2023-04-27T02:00:59;100162.88;;;3.25;47.77
51715;BME280;39115;59.332;18.034;2023-04-27T02:03:19;100167.38;;;3.23;47.92
51715;BME280;39115;59.332;18.034;2023-04-27T02:05:40;100170.00;;;3.23;47.89
51715;BME280;39115;59.332;18.034;2023-04-27T02:08:01;100170.31;;;3.19;47.81
51715;BME280;39115;59.332;18.034;2023-04-27T02:10:21;100172.94;;;3.19;47.82
51715;BME280;39115;59.332;18.034;2023-04-27T02:12:41;100164.28;;;3.16;47.66
51715;BME280;39115;59.332;18.034;2023-04-27T02:15:02;100171.34;;;3.16;47.88
51715;BME280;39115;59.332;18.034;2023-04-27T02:17:22;100170.41;;;3.17;47.94
51715;BME280;39115;59.332;18.034;2023-04-27T02:19:43;100167.78;;;3.17;47.80
51715;BME280;39115;59.332;18.034;2023-04-27T02:22:03;100170.31;;;3.19;48.03
51715;BME280;39115;59.332;18.034;2023-04-27T02:24:23;100176.50;;;3.17;48.09
51715;BME280;39115;59.332;18.034;2023-04-27T02:26:44;100172.09;;;3.18;48.04
51715;BME280;39115;59.332;18.034;2023-04-27T02:29:04;100167.78;;;3.17;47.84
51715;BME280;39115;59.332;18.034;2023-04-27T02:31:25;100168.72;;;3.16;47.92
51715;BME280;39115;59.332;18.034;2023-04-27T02:33:45;100173.97;;;3.16;47.94
51715;BME280;39115;59.332;18.034;2023-04-27T02:36:07;100173.97;;;3.16;48.05
51715;BME280;39115;59.332;18.034;2023-04-27T02:38:30;100175.75;;;3.15;47.99
51715;BME280;39115;59.332;18.034;2023-04-27T02:40:54;100175.75;;;3.15;47.93
51715;BME280;39115;59.332;18.034;2023-04-27T02:43:14;100173.13;;;3.15;48.20
51715;BME280;39115;59.332;18.034;2023-04-27T02:45:37;100179.44;;;3.13;48.03
51715;BME280;39115;59.332;18.034;2023-04-27T02:47:58;100183.88;;;3.12;48.19
51715;BME280;39115;59.332;18.034;2023-04-27T02:50:18;100182.06;;;3.13;48.07
51715;BME280;39115;59.332;18.034;2023-04-27T02:52:39;100185.63;;;3.12;48.18
51715;BME280;39115;59.332;18.034;2023-04-27T02:54:59;100181.34;;;3.11;48.19
51715;BME280;39115;59.332;18.034;2023-04-27T02:57:20;100184.81;;;3.11;48.02
51715;BME280;39115;59.332;18.034;2023-04-27T02:59:40;100187.44;;;3.11;48.36
51715;BME280;39115;59.332;18.034;2023-04-27T03:02:00;100186.59;;;3.11;48.16
51715;BME280;39115;59.332;18.034;2023-04-27T03:04:20;100189.31;;;3.09;48.11
51715;BME280;39115;59.332;18.034;2023-04-27T03:06:41;100194.69;;;3.08;48.31
51715;BME280;39115;59.332;18.034;2023-04-27T03:09:01;100187.63;;;3.08;48.21
51715;BME280;39115;59.332;18.034;2023-04-27T03:11:22;100196.38;;;3.09;48.29
51715;BME280;39115;59.332;18.034;2023-04-27T03:13:43;100194.69;;;3.08;47.75
51715;BME280;39115;59.332;18.034;2023-04-27T03:16:03;100189.53;;;3.06;48.14
51715;BME280;39115;59.332;18.034;2023-04-27T03:18:23;100194.78;;;3.06;48.01
51715;BME280;39115;59.332;18.034;2023-04-27T03:20:44;100188.66;;;3.06;48.37
51715;BME280;39115;59.332;18.034;2023-04-27T03:23:04;100190.47;;;3.05;48.42
51715;BME280;39115;59.332;18.034;2023-04-27T03:25:25;100194.78;;;3.06;48.29
51715;BME280;39115;59.332;18.034;2023-04-27T03:27:46;100190.38;;;3.07;48.06
51715;BME280;39115;59.332;18.034;2023-04-27T03:30:06;100188.50;;;3.09;48.21
51715;BME280;39115;59.332;18.034;2023-04-27T03:32:27;100195.50;;;3.08;48.34
51715;BME280;39115;59.332;18.034;2023-04-27T03:34:47;100195.50;;;3.08;48.20
51715;BME280;39115;59.332;18.034;2023-04-27T03:37:07;100201.72;;;3.07;48.20
51715;BME280;39115;59.332;18.034;2023-04-27T03:39:29;100201.72;;;3.07;48.32
51715;BME280;39115;59.332;18.034;2023-04-27T03:41:50;100204.25;;;3.09;48.19
51715;BME280;39115;59.332;18.034;2023-04-27T03:44:10;100200.69;;;3.10;48.28
51715;BME280;39115;59.332;18.034;2023-04-27T03:46:30;100204.03;;;3.12;48.28
51715;BME280;39115;59.332;18.034;2023-04-27T03:48:51;100208.28;;;3.14;48.06
51715;BME280;39115;59.332;18.034;2023-04-27T03:51:11;100198.59;;;3.15;48.42
51715;BME280;39115;59.332;18.034;2023-04-27T03:53:32;100211.63;;;3.16;48.25
51715;BME280;39115;59.332;18.034;2023-04-27T03:55:52;100217.75;;;3.17;48.37
51715;BME280;39115;59.332;18.034;2023-04-27T03:58:13;100217.66;;;3.19;48.37
51715;BME280;39115;59.332;18.034;2023-04-27T04:00:33;100221.03;;;3.21;48.25
51715;BME280;39115;59.332;18.034;2023-04-27T04:02:54;100222.72;;;3.22;48.33
51715;BME280;39115;59.332;18.034;2023-04-27T04:05:15;100220.81;;;3.24;48.35
51715;BME280;39115;59.332;18.034;2023-04-27T04:07:35;100218.81;;;3.27;48.51
51715;BME280;39115;59.332;18.034;2023-04-27T04:09:56;100232.72;;;3.29;48.46
51715;BME280;39115;59.332;18.034;2023-04-27T04:12:16;100222.03;;;3.32;48.43
51715;BME280;39115;59.332;18.034;2023-04-27T04:14:36;100226.13;;;3.37;48.64
51715;BME280;39115;59.332;18.034;2023-04-27T04:16:57;100224.13;;;3.40;48.45
51715;BME280;39115;59.332;18.034;2023-04-27T04:19:17;100234.34;;;3.45;48.49
51715;BME280;39115;59.332;18.034;2023-04-27T04:21:37;100230.47;;;3.51;48.62
51715;BME280;39115;59.332;18.034;2023-04-27T04:23:58;100233.63;;;3.56;48.51
51715;BME280;39115;59.332;18.034;2023-04-27T04:26:18;100243.03;;;3.60;48.39
51715;BME280;39115;59.332;18.034;2023-04-27T04:28:39;100234.72;;;3.66;48.40
51715;BME280;39115;59.332;18.034;2023-04-27T04:31:00;100237.06;;;3.71;48.46
51715;BME280;39115;59.332;18.034;2023-04-27T04:33:20;100233.25;;;3.75;48.38
51715;BME280;39115;59.332;18.034;2023-04-27T04:35:41;100235.56;;;3.79;48.39
51715;BME280;39115;59.332;18.034;2023-04-27T04:38:01;100234.31;;;3.85;48.34
51715;BME280;39115;59.332;18.034;2023-04-27T04:40:22;100235.72;;;3.91;48.32
51715;BME280;39115;59.332;18.034;2023-04-27T04:42:42;100236.97;;;3.98;48.31
51715;BME280;39115;59.332;18.034;2023-04-27T04:45:03;100236.56;;;4.04;48.52
51715;BME280;39115;59.332;18.034;2023-04-27T04:47:23;100239.63;;;4.11;48.52
51715;BME280;39115;59.332;18.034;2023-04-27T04:49:43;100242.66;;;4.18;48.37
51715;BME280;39115;59.332;18.034;2023-04-27T04:52:04;100243.91;;;4.25;48.56
51715;BME280;39115;59.332;18.034;2023-04-27T04:54:24;100241.72;;;4.32;48.52
51715;BME280;39115;59.332;18.034;2023-04-27T04:56:45;100246.66;;;4.36;48.34
51715;BME280;39115;59.332;18.034;2023-04-27T04:59:05;100241.91;;;4.41;48.51
51715;BME280;39115;59.332;18.034;2023-04-27T05:01:26;100249.50;;;4.46;48.39
51715;BME280;39115;59.332;18.034;2023-04-27T05:03:46;100246.34;;;4.54;48.34
51715;BME280;39115;59.332;18.034;2023-04-27T05:06:07;100242.31;;;4.61;48.18
51715;BME280;39115;59.332;18.034;2023-04-27T05:08:27;100243.66;;;4.67;48.24
51715;BME280;39115;59.332;18.034;2023-04-27T05:10:48;100237.84;;;4.74;48.22
51715;BME280;39115;59.332;18.034;2023-04-27T05:13:09;100244.34;;;4.82;48.08
51715;BME280;39115;59.332;18.034;2023-04-27T05:15:29;100246.47;;;4.89;48.20
51715;BME280;39115;59.332;18.034;2023-04-27T05:17:50;100244.22;;;4.96;48.05
51715;BME280;39115;59.332;18.034;2023-04-27T05:20:10;100244.63;;;5.03;47.98
51715;BME280;39115;59.332;18.034;2023-04-27T05:22:31;100244.91;;;5.11;48.28
51715;BME280;39115;59.332;18.034;2023-04-27T05:24:51;100246.75;;;5.22;48.26
51715;BME280;39115;59.332;18.034;2023-04-27T05:27:12;100243.78;;;5.27;48.18
51715;BME280;39115;59.332;18.034;2023-04-27T05:29:32;100242.38;;;5.34;47.77
51715;BME280;39115;59.332;18.034;2023-04-27T05:31:53;100242.03;;;5.38;48.23
51715;BME280;39115;59.332;18.034;2023-04-27T05:34:13;100247.59;;;5.47;47.78
51715;BME280;39115;59.332;18.034;2023-04-27T05:36:34;100247.75;;;5.57;47.90
51715;BME280;39115;59.332;18.034;2023-04-27T05:38:54;100242.72;;;5.65;48.13
51715;BME280;39115;59.332;18.034;2023-04-27T05:41:15;100252.00;;;5.70;48.27
51715;BME280;39115;59.332;18.034;2023-04-27T05:43:35;100255.88;;;5.78;48.07
51715;BME280;39115;59.332;18.034;2023-04-27T05:45:57;100257.16;;;5.83;47.69
51715;BME280;39115;59.332;18.034;2023-04-27T05:48:18;100248.69;;;5.91;47.80
51715;BME280;39115;59.332;18.034;2023-04-27T05:50:38;100258.47;;;6.02;47.86
51715;BME280;39115;59.332;18.034;2023-04-27T05:52:58;100259.66;;;6.09;47.63
51715;BME280;39115;59.332;18.034;2023-04-27T05:55:20;100260.78;;;6.18;47.57
51715;BME280;39115;59.332;18.034;2023-04-27T05:57:40;100263.66;;;6.26;47.40
51715;BME280;39115;59.332;18.034;2023-04-27T06:00:01;100259.47;;;6.35;47.75
51715;BME280;39115;59.332;18.034;2023-04-27T06:02:21;100267.75;;;6.42;47.67
51715;BME280;39115;59.332;18.034;2023-04-27T06:04:42;100261.75;;;6.51;47.09
51715;BME280;39115;59.332;18.034;2023-04-27T06:07:09;100259.47;;;6.58;47.44
51715;BME280;39115;59.332;18.034;2023-04-27T06:09:30;100258.75;;;6.67;47.45
51715;BME280;39115;59.332;18.034;2023-04-27T06:11:50;100264.28;;;6.75;46.84
51715;BME280;39115;59.332;18.034;2023-04-27T06:14:10;100260.19;;;6.83;46.82
51715;BME280;39115;59.332;18.034;2023-04-27T06:16:31;100267.50;;;6.90;47.22
51715;BME280;39115;59.332;18.034;2023-04-27T06:18:51;100265.34;;;6.95;46.86
51715;BME280;39115;59.332;18.034;2023-04-27T06:21:11;100263.16;;;7.01;47.27
51715;BME280;39115;59.332;18.034;2023-04-27T06:23:32;100269.50;;;7.09;46.92
51715;BME280;39115;59.332;18.034;2023-04-27T06:25:52;100262.50;;;7.20;46.80
51715;BME280;39115;59.332;18.034;2023-04-27T06:28:12;100264.50;;;7.27;47.14
51715;BME280;39115;59.332;18.034;2023-04-27T06:30:33;100268.09;;;7.38;46.71
51715;BME280;39115;59.332;18.034;2023-04-27T06:32:53;100268.19;;;7.48;46.58
51715;BME280;39115;59.332;18.034;2023-04-27T06:35:14;100277.19;;;7.56;46.93
51715;BME280;39115;59.332;18.034;2023-04-27T06:37:35;100272.69;;;7.68;46.60
51715;BME280;39115;59.332;18.034;2023-04-27T06:39:55;100269.97;;;7.80;46.66
51715;BME280;39115;59.332;18.034;2023-04-27T06:42:16;100277.28;;;7.87;46.60
51715;BME280;39115;59.332;18.034;2023-04-27T06:44:36;100279.28;;;7.95;46.48
51715;BME280;39115;59.332;18.034;2023-04-27T06:46:56;100278.75;;;8.01;46.34
51715;BME280;39115;59.332;18.034;2023-04-27T06:49:17;100286.31;;;8.06;46.22
51715;BME280;39115;59.332;18.034;2023-04-27T06:51:37;100278.00;;;8.11;46.11
51715;BME280;39115;59.332;18.034;2023-04-27T06:53:58;100283.88;;;8.14;46.26
51715;BME280;39115;59.332;18.034;2023-04-27T06:56:18;100282.94;;;8.25;46.20
51715;BME280;39115;59.332;18.034;2023-04-27T06:58:38;100277.00;;;8.33;46.28
51715;BME280;39115;59.332;18.034;2023-04-27T07:00:59;100283.22;;;8.43;46.11
51715;BME280;39115;59.332;18.034;2023-04-27T07:03:19;100290.13;;;8.56;46.11
51715;BME280;39115;59.332;18.034;2023-04-27T07:05:40;100286.13;;;8.61;45.66
51715;BME280;39115;59.332;18.034;2023-04-27T07:08:00;100293.34;;;8.59;46.06
51715;BME280;39115;59.332;18.034;2023-04-27T07:10:20;100296.84;;;8.60;45.96
51715;BME280;39115;59.332;18.034;2023-04-27T07:12:41;100285.97;;;8.63;45.81
51715;BME280;39115;59.332;18.034;2023-04-27T07:15:01;100283.53;;;8.50;45.78
51715;BME280;39115;59.332;18.034;2023-04-27T07:17:23;100294.59;;;8.55;45.72
51715;BME280;39115;59.332;18.034;2023-04-27T07:19:43;100292.53;;;8.59;45.95
51715;BME280;39115;59.332;18.034;2023-04-27T07:22:04;100295.78;;;8.72;46.00
51715;BME280;39115;59.332;18.034;2023-04-27T07:24:24;100283.53;;;8.81;45.81
51715;BME280;39115;59.332;18.034;2023-04-27T07:26:44;100281.88;;;8.90;45.72
51715;BME280;39115;59.332;18.034;2023-04-27T07:29:05;100302.13;;;8.91;45.94
51715;BME280;39115;59.332;18.034;2023-04-27T07:31:25;100301.59;;;8.97;45.73
51715;BME280;39115;59.332;18.034;2023-04-27T07:33:45;100285.38;;;9.00;45.49
51715;BME280;39115;59.332;18.034;2023-04-27T07:36:06;100283.03;;;9.07;45.46
51715;BME280;39115;59.332;18.034;2023-04-27T07:38:27;100292.97;;;9.14;45.27
51715;BME280;39115;59.332;18.034;2023-04-27T07:40:50;100281.69;;;9.22;45.35
51715;BME280;39115;59.332;18.034;2023-04-27T07:43:11;100297.63;;;9.32;45.50
51715;BME280;39115;59.332;18.034;2023-04-27T07:45:32;100287.25;;;9.19;45.73
51715;BME280;39115;59.332;18.034;2023-04-27T07:47:52;100296.00;;;9.00;46.10
51715;BME280;39115;59.332;18.034;2023-04-27T07:50:13;100298.03;;;9.27;45.44
51715;BME280;39115;59.332;18.034;2023-04-27T07:52:35;100285.34;;;9.41;45.37
51715;BME280;39115;59.332;18.034;2023-04-27T07:54:56;100294.44;;;9.48;45.11
51715;BME280;39115;59.332;18.034;2023-04-27T07:57:16;100300.47;;;9.60;45.14
51715;BME280;39115;59.332;18.034;2023-04-27T07:59:37;100301.81;;;9.25;45.50
51715;BME280;39115;59.332;18.034;2023-04-27T08:01:57;100312.66;;;9.02;46.05
51715;BME280;39115;59.332;18.034;2023-04-27T08:04:17;100306.06;;;9.06;45.96
51715;BME280;39115;59.332;18.034;2023-04-27T08:06:38;100307.75;;;8.97;45.67
51715;BME280;39115;59.332;18.034;2023-04-27T08:08:58;100309.81;;;8.84;46.06
51715;BME280;39115;59.332;18.034;2023-04-27T08:11:19;100313.53;;;9.22;45.75
51715;BME280;39115;59.332;18.034;2023-04-27T08:13:40;100313.72;;;9.50;45.21
51715;BME280;39115;59.332;18.034;2023-04-27T08:16:00;100320.81;;;9.30;45.30
51715;BME280;39115;59.332;18.034;2023-04-27T08:18:21;100314.66;;;9.20;45.90
51715;BME280;39115;59.332;18.034;2023-04-27T08:20:41;100314.25;;;9.34;45.36
51715;BME280;39115;59.332;18.034;2023-04-27T08:23:01;100315.25;;;9.33;45.67
51715;BME280;39115;59.332;18.034;2023-04-27T08:25:22;100323.66;;;9.58;45.57
51715;BME280;39115;59.332;18.034;2023-04-27T08:27:42;100325.47;;;9.47;45.44
51715;BME280;39115;59.332;18.034;2023-04-27T08:30:03;100322.25;;;9.34;45.53
51715;BME280;39115;59.332;18.034;2023-04-27T08:32:23;100329.47;;;9.22;45.62
51715;BME280;39115;59.332;18.034;2023-04-27T08:34:43;100329.56;;;9.11;45.53
51715;BME280;39115;59.332;18.034;2023-04-27T08:37:05;100320.06;;;9.08;45.50
51715;BME280;39115;59.332;18.034;2023-04-27T08:39:25;100338.22;;;9.03;45.83
51715;BME280;39115;59.332;18.034;2023-04-27T08:41:46;100321.72;;;8.99;45.65
51715;BME280;39115;59.332;18.034;2023-04-27T08:44:07;100324.63;;;8.96;45.79
51715;BME280;39115;59.332;18.034;2023-04-27T08:46:27;100317.38;;;8.98;45.72
51715;BME280;39115;59.332;18.034;2023-04-27T08:48:50;100317.34;;;9.39;45.73
51715;BME280;39115;59.332;18.034;2023-04-27T08:51:11;100316.38;;;9.40;45.87
51715;BME280;39115;59.332;18.034;2023-04-27T08:53:33;100314.97;;;9.36;45.08
51715;BME280;39115;59.332;18.034;2023-04-27T08:55:54;100317.34;;;9.29;45.73
51715;BME280;39115;59.332;18.034;2023-04-27T08:58:16;100322.34;;;9.23;45.44
51715;BME280;39115;59.332;18.034;2023-04-27T09:00:37;100324.44;;;9.19;45.34
51715;BME280;39115;59.332;18.034;2023-04-27T09:03:01;100319.66;;;9.13;45.57
51715;BME280;39115;59.332;18.034;2023-04-27T09:05:23;100322.72;;;9.08;45.40
51715;BME280;39115;59.332;18.034;2023-04-27T09:07:59;100333.63;;;9.05;45.69
51715;BME280;39115;59.332;18.034;2023-04-27T09:10:19;100325.09;;;9.01;45.51
51715;BME280;39115;59.332;18.034;2023-04-27T09:12:42;100325.41;;;9.18;45.34
51715;BME280;39115;59.332;18.034;2023-04-27T09:15:12;100319.88;;;9.60;44.63
51715;BME280;39115;59.332;18.034;2023-04-27T09:17:33;100314.56;;;10.00;44.80
51715;BME280;39115;59.332;18.034;2023-04-27T09:20:05;100322.94;;;10.24;44.56
51715;BME280;39115;59.332;18.034;2023-04-27T09:22:28;100312.84;;;10.28;44.56
51715;BME280;39115;59.332;18.034;2023-04-27T09:24:51;100322.22;;;10.32;44.60
51715;BME280;39115;59.332;18.034;2023-04-27T09:27:18;100325.56;;;10.34;44.73
51715;BME280;39115;59.332;18.034;2023-04-27T09:29:38;100328.38;;;10.33;44.91
51715;BME280;39115;59.332;18.034;2023-04-27T09:31:59;100327.28;;;10.25;44.51
51715;BME280;39115;59.332;18.034;2023-04-27T09:34:19;100320.97;;;10.17;44.95
51715;BME280;39115;59.332;18.034;2023-04-27T09:36:39;100331.78;;;10.05;45.03
51715;BME280;39115;59.332;18.034;2023-04-27T09:39:03;100326.03;;;10.00;44.73
51715;BME280;39115;59.332;18.034;2023-04-27T09:41:24;100322.38;;;10.21;44.36
51715;BME280;39115;59.332;18.034;2023-04-27T09:43:46;100333.25;;;10.57;43.90
51715;BME280;39115;59.332;18.034;2023-04-27T09:46:06;100316.19;;;10.87;44.01
51715;BME280;39115;59.332;18.034;2023-04-27T09:48:27;100325.84;;;11.16;43.94
51715;BME280;39115;59.332;18.034;2023-04-27T09:50:47;100325.28;;;11.41;43.43
51715;BME280;39115;59.332;18.034;2023-04-27T09:53:09;100334.84;;;11.61;43.17
51715;BME280;39115;59.332;18.034;2023-04-27T09:55:31;100321.94;;;11.75;43.46
51715;BME280;39115;59.332;18.034;2023-04-27T10:00:37;100315.41;;;12.05;43.20
51715;BME280;39115;59.332;18.034;2023-04-27T10:05:41;100325.88;;;12.25;43.24
51715;BME280;39115;59.332;18.034;2023-04-27T10:08:05;100326.88;;;12.24;43.06
51715;BME280;39115;59.332;18.034;2023-04-27T10:10:26;100317.22;;;12.05;43.45
51715;BME280;39115;59.332;18.034;2023-04-27T10:12:56;100328.06;;;11.85;44.07
51715;BME280;39115;59.332;18.034;2023-04-27T10:15:17;100343.28;;;11.57;44.01
51715;BME280;39115;59.332;18.034;2023-04-27T10:17:37;100348.19;;;11.33;44.31
51715;BME280;39115;59.332;18.034;2023-04-27T10:22:18;100359.50;;;10.80;44.58
51715;BME280;39115;59.332;18.034;2023-04-27T10:24:39;100369.91;;;10.63;44.72
51715;BME280;39115;59.332;18.034;2023-04-27T10:27:07;100373.69;;;10.70;44.33
51715;BME280;39115;59.332;18.034;2023-04-27T10:29:33;100374.09;;;10.75;44.31
51715;BME280;39115;59.332;18.034;2023-04-27T10:31:54;100372.03;;;10.59;44.33
51715;BME280;39115;59.332;18.034;2023-04-27T10:34:15;100376.28;;;10.42;44.21
51715;BME280;39115;59.332;18.034;2023-04-27T10:36:39;100377.81;;;10.25;44.81
51715;BME280;39115;59.332;18.034;2023-04-27T10:39:00;100378.69;;;10.06;44.33
51715;BME280;39115;59.332;18.034;2023-04-27T10:41:20;100383.00;;;9.88;44.90
51715;BME280;39115;59.332;18.034;2023-04-27T10:43:42;100385.63;;;9.68;44.60
51715;BME280;39115;59.332;18.034;2023-04-27T10:46:11;100391.75;;;9.49;45.16
51715;BME280;39115;59.332;18.034;2023-04-27T10:48:32;100393.38;;;9.30;44.86
51715;BME280;39115;59.332;18.034;2023-04-27T10:50:52;100399.75;;;9.18;45.16
51715;BME280;39115;59.332;18.034;2023-04-27T10:53:13;100406.00;;;9.07;45.18
51715;BME280;39115;59.332;18.034;2023-04-27T10:55:34;100421.19;;;8.95;45.08
51715;BME280;39115;59.332;18.034;2023-04-27T10:57:55;100414.34;;;8.72;45.13
51715;BME280;39115;59.332;18.034;2023-04-27T11:00:26;100423.31;;;8.49;45.05
51715;BME280;39115;59.332;18.034;2023-04-27T11:02:46;100433.19;;;8.36;45.07
51715;BME280;39115;59.332;18.034;2023-04-27T11:05:17;100421.81;;;8.57;44.96
51715;BME280;39115;59.332;18.034;2023-04-27T11:07:38;100417.66;;;8.85;44.93
51715;BME280;39115;59.332;18.034;2023-04-27T11:09:58;100424.47;;;9.09;44.50
51715;BME280;39115;59.332;18.034;2023-04-27T11:12:18;100420.09;;;9.29;44.42
51715;BME280;39115;59.332;18.034;2023-04-27T11:14:39;100420.13;;;9.48;44.53
51715;BME280;39115;59.332;18.034;2023-04-27T11:16:59;100425.78;;;9.65;44.26
51715;BME280;39115;59.332;18.034;2023-04-27T11:19:19;100423.28;;;9.73;44.36
51715;BME280;39115;59.332;18.034;2023-04-27T11:21:40;100425.63;;;9.76;43.98
51715;BME280;39115;59.332;18.034;2023-04-27T11:24:04;100431.50;;;9.70;44.42
51715;BME280;39115;59.332;18.034;2023-04-27T11:26:25;100435.44;;;9.66;44.76
51715;BME280;39115;59.332;18.034;2023-04-27T11:31:18;100442.69;;;9.64;44.93
51715;BME280;39115;59.332;18.034;2023-04-27T11:33:46;100448.25;;;9.51;45.16
51715;BME280;39115;59.332;18.034;2023-04-27T11:36:20;100460.78;;;9.39;45.32
51715;BME280;39115;59.332;18.034;2023-04-27T11:38:41;100464.78;;;9.24;45.05
51715;BME280;39115;59.332;18.034;2023-04-27T11:41:03;100468.19;;;9.05;45.20
51715;BME280;39115;59.332;18.034;2023-04-27T11:43:24;100462.78;;;8.85;45.32
51715;BME280;39115;59.332;18.034;2023-04-27T11:45:45;100469.38;;;8.69;45.44
51715;BME280;39115;59.332;18.034;2023-04-27T11:48:06;100456.03;;;8.60;45.19
51715;BME280;39115;59.332;18.034;2023-04-27T11:50:26;100437.53;;;8.69;45.47
51715;BME280;39115;59.332;18.034;2023-04-27T11:52:47;100456.34;;;8.88;45.47
51715;BME280;39115;59.332;18.034;2023-04-27T11:55:08;100456.72;;;9.04;44.61
51715;BME280;39115;59.332;18.034;2023-04-27T11:57:35;100456.94;;;9.22;45.08
51715;BME280;39115;59.332;18.034;2023-04-27T11:59:56;100453.38;;;9.33;45.07
51715;BME280;39115;59.332;18.034;2023-04-27T12:02:19;100468.28;;;9.55;44.45
51715;BME280;39115;59.332;18.034;2023-04-27T12:04:41;100463.81;;;9.65;44.99
51715;BME280;39115;59.332;18.034;2023-04-27T12:07:01;100469.28;;;9.64;45.07
51715;BME280;39115;59.332;18.034;2023-04-27T12:09:22;100463.25;;;9.62;45.30
51715;BME280;39115;59.332;18.034;2023-04-27T12:11:43;100491.91;;;9.58;44.98
51715;BME280;39115;59.332;18.034;2023-04-27T12:14:03;100488.25;;;9.49;45.08
51715;BME280;39115;59.332;18.034;2023-04-27T12:16:24;100487.63;;;9.36;45.02
51715;BME280;39115;59.332;18.034;2023-04-27T12:18:44;100497.75;;;9.21;45.29
51715;BME280;39115;59.332;18.034;2023-04-27T12:21:05;100507.38;;;9.12;45.14
51715;BME280;39115;59.332;18.034;2023-04-27T12:23:27;100504.00;;;9.10;45.17
51715;BME280;39115;59.332;18.034;2023-04-27T12:25:47;100508.38;;;9.21;44.80